Time;durP1;ratioP1;P1;durP2;ratioP2;P2;SDS_P1;SDS_P2;PMS_P1;PMS_P2;Temp;Humidity;BMP_temperature;BMP_pressure;BME280_temperature;BME280_humidity;BME280_pressure;Samples;Min_cycle;Max_cycle;Signal;HPM_P1;HPM_P2
2022/09/17 00:00:33;;;;;;;7.57;2.45;;;;;;;12.21;100.00;100757.97;5050105;28;20697;-76
2022/09/17 00:02:59;;;;;;;14.45;2.75;;;;;;;12.22;100.00;100762.34;5050456;28;20048;-75
2022/09/17 00:05:25;;;;;;;12.57;2.58;;;;;;;12.18;100.00;100765.13;5049710;28;20071;-76
2022/09/17 00:07:52;;;;;;;13.85;3.05;;;;;;;12.17;100.00;100766.34;5050768;28;20049;-77
2022/09/17 00:10:19;;;;;;;19.42;3.10;;;;;;;12.22;100.00;100767.91;5050461;28;20049;-76
2022/09/17 00:12:46;;;;;;;11.45;3.05;;;;;;;12.25;100.00;100775.41;5048964;28;20051;-76
2022/09/17 00:15:13;;;;;;;9.88;2.95;;;;;;;12.12;100.00;100777.84;5049284;28;20044;-77
2022/09/17 00:17:40;;;;;;;11.55;2.60;;;;;;;12.07;100.00;100774.72;5046348;28;20086;-75
2022/09/17 00:20:11;;;;;;;19.63;3.88;;;;;;;12.10;100.00;100779.44;5051459;28;20052;-76
2022/09/17 00:22:38;;;;;;;19.52;3.78;;;;;;;12.08;100.00;100774.31;5049730;28;20051;-76
2022/09/17 00:25:06;;;;;;;15.48;2.90;;;;;;;12.01;100.00;100768.00;5050011;28;20125;-76
2022/09/17 00:27:32;;;;;;;8.20;2.70;;;;;;;11.94;100.00;100770.81;5049025;28;20049;-77
2022/09/17 00:29:58;;;;;;;10.20;2.85;;;;;;;11.87;100.00;100770.88;5050918;28;20642;-76
2022/09/17 00:32:26;;;;;;;17.25;3.38;;;;;;;11.90;100.00;100770.84;5048410;28;20053;-76
2022/09/17 00:34:52;;;;;;;19.70;2.88;;;;;;;11.86;100.00;100770.09;5049411;28;20044;-76
2022/09/17 00:37:19;;;;;;;13.75;2.90;;;;;;;11.88;100.00;100767.69;5050135;28;20055;-76
2022/09/17 00:39:46;;;;;;;12.25;2.65;;;;;;;11.93;100.00;100781.16;5049032;28;20082;-76
2022/09/17 00:42:13;;;;;;;12.07;3.03;;;;;;;11.94;100.00;100777.16;5049081;28;20836;-77
2022/09/17 00:44:41;;;;;;;11.60;2.03;;;;;;;11.93;100.00;100766.47;5045534;28;20843;-76
2022/09/17 00:47:14;;;;;;;17.70;3.00;;;;;;;11.91;100.00;100772.44;5044992;28;20162;-76
2022/09/17 00:49:41;;;;;;;14.13;2.55;;;;;;;11.88;100.00;100783.56;5043205;28;20051;-76
2022/09/17 00:52:13;;;;;;;13.10;2.78;;;;;;;11.86;100.00;100783.97;5047397;28;20052;-75
2022/09/17 00:54:43;;;;;;;11.38;3.10;;;;;;;11.91;100.00;100779.97;5047062;28;20052;-75
2022/09/17 00:57:10;;;;;;;16.10;2.95;;;;;;;11.87;100.00;100784.72;5048553;28;20110;-76
2022/09/17 00:59:37;;;;;;;22.17;3.33;;;;;;;11.91;100.00;100789.06;5049219;28;20102;-77
2022/09/17 01:02:03;;;;;;;11.02;2.20;;;;;;;11.85;100.00;100792.69;5049552;28;20048;-78
2022/09/17 01:04:30;;;;;;;19.17;2.80;;;;;;;11.88;100.00;100789.09;5046834;28;20102;-76
2022/09/17 01:07:21;;;;;;;15.85;2.97;;;;;;;11.88;100.00;100787.09;5040905;28;20122;-76
2022/09/17 01:10:29;;;;;;;9.68;2.53;;;;;;;11.67;100.00;100783.63;5060508;28;20060;-76
2022/09/17 01:13:27;;;;;;;12.80;2.72;;;;;;;11.75;100.00;100785.97;5014735;28;20044;-76
2022/09/17 01:16:04;;;;;;;9.82;2.38;;;;;;;11.73;100.00;100787.56;5061069;28;20052;-76
2022/09/17 01:18:44;;;;;;;17.33;2.67;;;;;;;11.68;100.00;100788.00;5051380;28;20511;-75
2022/09/17 01:21:49;;;;;;;10.68;2.50;;;;;;;11.62;100.00;100793.19;5063648;28;20052;-77
2022/09/17 01:24:16;;;;;;;14.57;2.60;;;;;;;11.68;100.00;100790.78;5056172;28;20049;-75
2022/09/17 01:26:53;;;;;;;13.30;2.65;;;;;;;11.64;100.00;100801.09;5064942;28;20056;-75
2022/09/17 01:29:57;;;;;;;10.20;2.38;;;;;;;11.63;100.00;100802.28;5055760;28;20051;-75
2022/09/17 01:32:56;;;;;;;12.07;2.58;;;;;;;11.64;100.00;100806.63;5058156;28;20170;-75
2022/09/17 01:35:23;;;;;;;14.25;2.83;;;;;;;11.57;100.00;100799.09;5049807;28;20048;-76
2022/09/17 01:38:22;;;;;;;10.82;2.55;;;;;;;11.51;100.00;100808.25;5052394;28;20056;-75
2022/09/17 01:41:26;;;;;;;6.35;2.10;;;;;;;11.44;100.00;100802.72;5054853;28;20595;-75
2022/09/17 01:44:15;;;;;;;16.02;3.55;;;;;;;11.49;100.00;100805.06;5055869;28;20472;-76
2022/09/17 01:46:54;;;;;;;17.25;3.38;;;;;;;11.58;100.00;100805.44;5064035;28;20101;-75
2022/09/17 01:49:24;;;;;;;18.60;3.10;;;;;;;11.52;100.00;100810.59;5049732;28;20112;-75
2022/09/17 01:51:53;;;;;;;14.15;2.30;;;;;;;11.47;100.00;100799.91;5059763;28;20492;-75
2022/09/17 01:54:29;;;;;;;23.38;4.05;;;;;;;11.62;100.00;100809.00;5067786;28;20063;-75
2022/09/17 01:57:00;;;;;;;16.75;3.15;;;;;;;11.59;100.00;100809.78;5066693;28;20060;-75
2022/09/17 01:59:38;;;;;;;8.95;2.45;;;;;;;11.51;100.00;100808.25;5058978;28;20494;-75
2022/09/17 02:02:23;;;;;;;14.02;3.60;;;;;;;11.59;100.00;100810.59;5059631;28;20048;-75
2022/09/17 02:05:15;;;;;;;12.27;2.40;;;;;;;11.50;100.00;100809.41;5061086;28;20374;-75
2022/09/17 02:07:46;;;;;;;11.43;2.88;;;;;;;11.61;100.00;100810.19;5057430;28;20095;-78
2022/09/17 02:10:21;;;;;;;14.85;2.17;;;;;;;11.56;100.00;100807.81;5066041;28;20041;-76
2022/09/17 02:12:55;;;;;;;16.45;2.90;;;;;;;11.60;100.00;100806.59;5053403;28;20059;-75
2022/09/17 02:15:27;;;;;;;8.57;2.42;;;;;;;11.66;100.00;100804.25;5067841;28;20048;-75
2022/09/17 02:18:02;;;;;;;14.45;2.90;;;;;;;11.71;100.00;100803.84;5071019;28;20102;-75
2022/09/17 02:20:38;;;;;;;19.15;3.20;;;;;;;11.72;100.00;100814.53;5061709;28;20044;-78
2022/09/17 02:23:12;;;;;;;16.13;2.97;;;;;;;11.71;100.00;100815.69;5066426;28;20361;-76
2022/09/17 02:25:49;;;;;;;19.13;3.38;;;;;;;11.72;100.00;100808.19;5062531;28;20044;-75
2022/09/17 02:28:24;;;;;;;22.23;3.20;;;;;;;11.70;100.00;100805.81;5069094;28;20126;-77
2022/09/17 02:30:50;;;;;;;19.17;3.17;;;;;;;11.66;100.00;100799.50;5068706;28;20055;-76
2022/09/17 02:33:18;;;;;;;11.57;2.53;;;;;;;11.70;100.00;100803.03;5058420;28;20053;-76
2022/09/17 02:35:45;;;;;;;4.95;1.20;;;;;;;11.65;100.00;100805.44;5060474;28;20052;-75
2022/09/17 02:38:12;;;;;;;8.93;2.05;;;;;;;11.66;100.00;100802.28;5068971;28;20044;-76
2022/09/17 02:40:53;;;;;;;17.20;3.33;;;;;;;11.75;100.00;100808.16;5071224;28;20059;-78
2022/09/17 02:43:40;;;;;;;17.02;3.22;;;;;;;11.79;100.00;100814.50;5058452;28;20057;-76
2022/09/17 02:46:40;;;;;;;18.92;3.30;;;;;;;11.86;100.00;100819.19;5057131;28;20049;-74
2022/09/17 02:49:32;;;;;;;14.07;2.10;;;;;;;11.83;100.00;100808.91;5065096;28;20580;-74
2022/09/17 02:52:04;;;;;;;15.85;2.63;;;;;;;11.77;100.00;100816.06;5062960;28;20115;-77
2022/09/17 02:54:41;;;;;;;15.52;2.40;;;;;;;11.81;100.00;100816.88;5067711;28;20106;-75
2022/09/17 02:57:13;;;;;;;15.88;3.10;;;;;;;11.90;100.00;100814.41;5061075;28;20674;-72
2022/09/17 02:59:51;;;;;;;13.45;2.80;;;;;;;11.89;100.00;100823.94;5059526;28;20053;-74
2022/09/17 03:02:23;;;;;;;17.88;3.00;;;;;;;11.86;100.00;100813.66;5066301;28;20118;-73
2022/09/17 03:04:51;;;;;;;12.00;2.80;;;;;;;11.88;100.00;100827.91;5064581;28;20048;-75
2022/09/17 03:07:20;;;;;;;15.02;2.33;;;;;;;11.80;100.00;100826.34;5070009;28;20459;-76
2022/09/17 03:09:47;;;;;;;16.50;2.67;;;;;;;11.80;100.00;100827.16;5067051;28;20045;-75
2022/09/17 03:12:14;;;;;;;22.52;2.97;;;;;;;11.84;100.00;100835.44;5070237;28;20057;-76
2022/09/17 03:14:40;;;;;;;16.83;3.40;;;;;;;11.77;100.00;100832.69;5069620;28;20098;-75
2022/09/17 03:17:10;;;;;;;16.90;2.58;;;;;;;11.78;100.00;100825.97;5070360;28;20118;-76
2022/09/17 03:19:36;;;;;;;15.10;2.38;;;;;;;11.75;100.00;100824.00;5067238;28;20083;-75
2022/09/17 03:22:02;;;;;;;17.65;2.88;;;;;;;11.80;100.00;100831.91;5071015;28;20102;-75
2022/09/17 03:24:29;;;;;;;22.42;2.67;;;;;;;11.76;100.00;100826.38;5066605;28;20041;-76
2022/09/17 03:26:57;;;;;;;18.63;2.75;;;;;;;11.80;100.00;100823.56;5059550;28;20068;-76
2022/09/17 03:29:23;;;;;;;20.85;4.18;;;;;;;11.83;100.00;100826.34;5058959;28;20041;-76
2022/09/17 03:31:50;;;;;;;24.17;3.17;;;;;;;11.82;100.00;100824.78;5062504;28;20045;-75
2022/09/17 03:34:17;;;;;;;20.67;3.00;;;;;;;11.78;100.00;100828.75;5055453;28;20052;-75
2022/09/17 03:36:43;;;;;;;20.70;3.13;;;;;;;11.82;100.00;100827.56;5061362;28;20044;-74
2022/09/17 03:39:10;;;;;;;18.70;3.50;;;;;;;11.83;100.00;100836.63;5060703;28;20053;-75
2022/09/17 03:41:36;;;;;;;15.57;2.65;;;;;;;11.79;100.00;100831.13;5062835;28;20049;-74
2022/09/17 03:44:03;;;;;;;23.85;2.75;;;;;;;11.80;100.00;100829.91;5054106;28;20072;-73
2022/09/17 03:46:30;;;;;;;13.63;2.95;;;;;;;11.86;100.00;100841.38;5067983;28;20893;-76
2022/09/17 03:48:56;;;;;;;14.23;2.78;;;;;;;11.83;100.00;100837.44;5069077;28;20044;-74
2022/09/17 03:51:23;;;;;;;16.13;2.72;;;;;;;11.80;100.00;100838.25;5059763;28;20513;-75
2022/09/17 03:53:49;;;;;;;10.35;2.72;;;;;;;11.79;100.00;100839.44;5064565;28;20552;-75
2022/09/17 03:56:16;;;;;;;16.48;2.53;;;;;;;11.73;100.00;100840.25;5064563;28;20705;-75
2022/09/17 03:58:42;;;;;;;15.27;2.70;;;;;;;11.69;100.00;100833.94;5066689;28;20044;-75
2022/09/17 04:01:09;;;;;;;2.95;0.93;;;;;;;11.64;100.00;100837.13;5056080;28;20082;-74
2022/09/17 04:03:35;;;;;;;19.30;3.13;;;;;;;11.69;100.00;100833.94;5059882;28;20068;-75
2022/09/17 04:06:02;;;;;;;21.95;3.25;;;;;;;11.70;100.00;100835.50;5061360;28;20072;-76
2022/09/17 04:08:28;;;;;;;15.48;3.58;;;;;;;11.69;100.00;100843.03;5065187;28;20117;-75
2022/09/17 04:10:55;;;;;;;15.32;3.20;;;;;;;11.71;100.00;100845.41;5060894;28;20052;-74
2022/09/17 04:13:21;;;;;;;24.80;3.95;;;;;;;11.69;100.00;100853.31;5066001;28;20755;-75
2022/09/17 04:15:48;;;;;;;13.38;3.20;;;;;;;11.63;100.00;100844.63;5068367;28;20496;-74
2022/09/17 04:18:14;;;;;;;14.35;2.72;;;;;;;11.58;100.00;100847.78;5069064;28;20063;-73
2022/09/17 04:20:42;;;;;;;16.83;2.53;;;;;;;11.59;100.00;100848.56;5067883;28;20068;-78
2022/09/17 04:23:10;;;;;;;20.65;2.70;;;;;;;11.62;100.00;100839.50;5061205;28;20056;-71
2022/09/17 04:25:37;;;;;;;19.77;3.40;;;;;;;11.64;100.00;100850.97;5066124;28;20052;-74
2022/09/17 04:28:04;;;;;;;16.42;2.65;;;;;;;11.63;100.00;100843.84;5058664;28;20045;-76
2022/09/17 04:30:31;;;;;;;12.55;2.53;;;;;;;11.59;100.00;100849.38;5059185;28;20048;-77
2022/09/17 04:32:58;;;;;;;13.52;2.08;;;;;;;11.62;100.00;100847.81;5067469;28;20048;-76
2022/09/17 04:35:24;;;;;;;10.52;2.33;;;;;;;11.67;100.00;100844.63;5066605;28;20455;-77
2022/09/17 04:37:56;;;;;;;17.52;3.00;;;;;;;11.66;100.00;100851.34;5062447;28;20053;-77
2022/09/17 04:40:23;;;;;;;14.40;2.33;;;;;;;11.68;100.00;100852.53;5056881;28;20044;-77
2022/09/17 04:42:58;;;;;;;23.10;2.75;;;;;;;11.71;100.00;100848.97;5064505;28;20139;-77
2022/09/17 04:45:25;;;;;;;12.67;2.53;;;;;;;11.71;100.00;100850.97;5058674;28;20048;-78
2022/09/17 04:47:51;;;;;;;20.17;3.03;;;;;;;11.67;100.00;100853.72;5072209;28;20392;-73
2022/09/17 04:50:18;;;;;;;18.38;2.80;;;;;;;11.72;100.00;100858.06;5067699;28;20400;-72
2022/09/17 04:52:45;;;;;;;13.20;2.13;;;;;;;11.63;100.00;100850.19;5065856;28;20040;-75
2022/09/17 04:55:12;;;;;;;19.42;2.58;;;;;;;11.67;100.00;100855.69;5056414;28;20049;-76
2022/09/17 04:57:46;;;;;;;9.40;1.80;;;;;;;11.70;100.00;100860.44;5064653;28;20067;-75
2022/09/17 05:00:13;;;;;;;13.18;2.20;;;;;;;11.70;100.00;100864.00;5057731;28;20066;-76
2022/09/17 05:02:39;;;;;;;15.02;1.95;;;;;;;11.63;100.00;100855.72;5067070;28;20135;-75
2022/09/17 05:05:06;;;;;;;14.63;2.05;;;;;;;11.76;100.00;100861.63;5067184;28;20048;-75
2022/09/17 05:07:32;;;;;;;13.63;2.22;;;;;;;11.75;100.00;100868.34;5060774;28;20741;-75
2022/09/17 05:09:59;;;;;;;14.00;2.45;;;;;;;11.74;100.00;100864.78;5067068;28;20052;-76
2022/09/17 05:12:25;;;;;;;14.20;2.15;;;;;;;11.76;100.00;100865.19;5056176;28;20048;-76
2022/09/17 05:14:56;;;;;;;14.68;1.80;;;;;;;11.74;100.00;100873.09;5055361;28;20060;-74
2022/09/17 05:17:23;;;;;;;9.73;1.83;;;;;;;11.78;100.00;100878.66;5067446;28;20296;-75
2022/09/17 05:19:49;;;;;;;16.58;2.10;;;;;;;11.80;100.00;100871.50;5059396;28;20480;-77
2022/09/17 05:22:16;;;;;;;16.95;2.13;;;;;;;11.72;100.00;100874.69;5066496;28;20044;-74
2022/09/17 05:24:47;;;;;;;10.88;1.88;;;;;;;11.79;100.00;100875.47;5066155;28;20044;-75
2022/09/17 05:27:13;;;;;;;9.75;1.83;;;;;;;11.83;100.00;100881.00;5067025;28;20056;-75
2022/09/17 05:29:39;;;;;;;10.00;1.33;;;;;;;11.84;100.00;100875.06;5056960;28;20486;-76
2022/09/17 05:32:06;;;;;;;10.55;1.90;;;;;;;11.91;100.00;100879.78;5058227;28;20113;-75
2022/09/17 05:34:32;;;;;;;7.03;1.45;;;;;;;11.81;100.00;100870.31;5065463;28;20053;-76
2022/09/17 05:36:59;;;;;;;8.32;1.60;;;;;;;11.93;100.00;100874.63;5065436;28;20060;-76
2022/09/17 05:39:25;;;;;;;11.13;1.85;;;;;;;12.02;100.00;100872.22;5066108;28;20055;-74
2022/09/17 05:41:52;;;;;;;14.27;2.30;;;;;;;12.04;100.00;100886.44;5066590;28;20049;-76
2022/09/17 05:44:19;;;;;;;14.38;2.05;;;;;;;12.08;100.00;100879.69;5058389;28;20501;-76
2022/09/17 05:46:46;;;;;;;13.43;1.95;;;;;;;12.06;100.00;100884.06;5065604;28;20045;-73
2022/09/17 05:49:13;;;;;;;13.63;1.85;;;;;;;12.13;100.00;100889.59;5061340;28;20386;-75
2022/09/17 05:51:41;;;;;;;9.23;1.65;;;;;;;12.10;100.00;100884.84;5053894;28;20095;-74
2022/09/17 05:54:08;;;;;;;15.05;1.67;;;;;;;12.15;100.00;100881.66;5066479;28;20056;-75
2022/09/17 05:56:34;;;;;;;7.57;1.25;;;;;;;12.13;100.00;100884.84;5054187;28;20564;-77
2022/09/17 05:59:01;;;;;;;15.57;2.13;;;;;;;12.23;100.00;100891.53;5057976;28;20441;-75
2022/09/17 06:01:28;;;;;;;7.88;1.63;;;;;;;12.25;100.00;100886.38;5059273;28;20053;-74
2022/09/17 06:03:55;;;;;;;13.30;2.20;;;;;;;12.34;100.00;100901.38;5065676;28;20131;-74
2022/09/17 06:06:21;;;;;;;13.13;2.42;;;;;;;12.38;100.00;100898.56;5067812;28;20099;-73
2022/09/17 06:08:48;;;;;;;2.58;0.80;;;;;;;12.29;100.00;100910.09;5067246;28;20074;-74
2022/09/17 06:11:15;;;;;;;9.10;1.70;;;;;;;12.39;100.00;100909.25;5065429;28;20057;-73
2022/09/17 06:13:42;;;;;;;9.65;1.45;;;;;;;12.35;100.00;100914.03;5067316;28;20588;-74
2022/09/17 06:16:09;;;;;;;11.55;2.22;;;;;;;12.41;100.00;100922.72;5066750;28;20052;-74
2022/09/17 06:18:35;;;;;;;18.25;2.30;;;;;;;12.37;100.00;100916.41;5067153;28;20584;-73
2022/09/17 06:21:04;;;;;;;13.75;1.88;;;;;;;12.39;100.00;100930.69;5067032;28;20075;-72
2022/09/17 06:23:36;;;;;;;13.75;2.40;;;;;;;12.38;100.00;100927.09;5069340;28;20123;-71
2022/09/17 06:26:04;;;;;;;11.85;2.08;;;;;;;12.31;100.00;100938.25;5064733;28;20064;-74
2022/09/17 06:28:31;;;;;;;17.23;2.58;;;;;;;12.28;100.00;100943.81;5068011;28;20417;-73
2022/09/17 06:31:04;;;;;;;17.48;2.00;;;;;;;12.27;100.00;100942.22;5065919;28;20566;-74
2022/09/17 06:33:31;;;;;;;17.85;3.50;;;;;;;12.32;100.00;100941.81;5060813;28;20041;-73
2022/09/17 06:35:59;;;;;;;13.57;2.05;;;;;;;12.32;100.00;100947.38;5064569;28;20052;-75
2022/09/17 06:38:27;;;;;;;14.18;3.42;;;;;;;12.31;100.00;100945.78;5065495;28;20324;-74
2022/09/17 06:40:54;;;;;;;15.10;2.17;;;;;;;12.24;100.00;100941.06;5067487;28;20053;-73
2022/09/17 06:43:21;;;;;;;12.68;2.22;;;;;;;12.35;100.00;100941.00;5063124;28;20052;-74
2022/09/17 06:45:52;;;;;;;7.60;1.83;;;;;;;12.32;100.00;100944.59;5065562;28;20052;-72
2022/09/17 06:48:20;;;;;;;18.75;2.80;;;;;;;12.42;100.00;100940.97;5056591;28;20057;-75
2022/09/17 06:50:46;;;;;;;11.45;1.90;;;;;;;12.37;100.00;100942.19;5054328;28;20045;-72
2022/09/17 06:53:13;;;;;;;11.48;1.65;;;;;;;12.39;100.00;100942.56;5059181;28;20118;-74
2022/09/17 06:55:40;;;;;;;13.55;3.47;;;;;;;12.43;100.00;100937.00;5066410;28;20049;-70
2022/09/17 06:58:06;;;;;;;11.70;2.22;;;;;;;12.53;100.00;100936.16;5059906;28;20202;-68
2022/09/17 07:00:33;;;;;;;1.25;0.50;;;;;;;12.39;100.00;100942.56;5063132;28;20416;-71
2022/09/17 07:03:00;;;;;;;12.68;1.48;;;;;;;12.49;100.00;100943.72;5053053;28;20048;-70
2022/09/17 07:05:28;;;;;;;10.10;1.75;;;;;;;12.50;100.00;100948.88;5059577;28;20052;-68
2022/09/17 07:07:55;;;;;;;9.55;1.73;;;;;;;12.48;100.00;100939.34;5060094;28;20079;-70
2022/09/17 07:10:22;;;;;;;8.75;2.10;;;;;;;12.41;100.00;100940.19;5060735;28;20060;-69
2022/09/17 07:12:48;;;;;;;7.30;1.63;;;;;;;12.36;100.00;100948.16;5061320;28;20060;-70
2022/09/17 07:15:15;;;;;;;11.63;1.55;;;;;;;12.33;100.00;100940.63;5060208;28;20056;-71
2022/09/17 07:17:43;;;;;;;16.35;2.58;;;;;;;12.31;100.00;100943.00;5067461;28;20044;-71
2022/09/17 07:20:10;;;;;;;8.45;1.85;;;;;;;12.31;100.00;100945.78;5067983;28;20454;-72
2022/09/17 07:22:37;;;;;;;7.50;1.85;;;;;;;12.47;100.00;100949.69;5060809;28;20603;-70
2022/09/17 07:25:04;;;;;;;8.40;1.85;;;;;;;12.49;100.00;100952.03;5066818;28;20056;-69
2022/09/17 07:27:31;;;;;;;11.40;2.00;;;;;;;12.55;100.00;100951.22;5068035;28;20052;-70
2022/09/17 07:29:58;;;;;;;12.60;1.83;;;;;;;12.70;100.00;100951.91;5069214;28;20070;-72
2022/09/17 07:32:24;;;;;;;6.75;1.63;;;;;;;12.75;100.00;100952.28;5068476;28;20406;-71
2022/09/17 07:34:51;;;;;;;12.90;2.10;;;;;;;12.76;100.00;100958.63;5068884;28;20063;-70
2022/09/17 07:37:18;;;;;;;13.88;1.95;;;;;;;12.85;100.00;100948.66;5069159;28;20055;-69
2022/09/17 07:39:44;;;;;;;10.70;1.85;;;;;;;12.83;100.00;100964.16;5067308;28;20048;-70
2022/09/17 07:42:11;;;;;;;13.80;2.00;;;;;;;13.00;100.00;100952.94;5058460;28;20052;-70
2022/09/17 07:44:37;;;;;;;13.73;3.15;;;;;;;13.23;100.00;100959.91;5068307;28;20071;-70
2022/09/17 07:47:04;;;;;;;10.07;2.00;;;;;;;13.33;100.00;100945.91;5068423;28;20505;-69
2022/09/17 07:49:31;;;;;;;12.30;2.03;;;;;;;13.41;100.00;100950.22;5063394;28;20094;-71
2022/09/17 07:51:58;;;;;;;13.43;2.20;;;;;;;13.50;100.00;100950.53;5066560;28;20053;-71
2022/09/17 07:54:25;;;;;;;5.90;1.73;;;;;;;13.51;100.00;100954.91;5064988;28;20429;-71
2022/09/17 07:56:51;;;;;;;12.48;2.15;;;;;;;13.54;100.00;100945.75;5067620;28;20048;-70
2022/09/17 07:59:20;;;;;;;9.30;1.80;;;;;;;13.58;100.00;100943.72;5057289;28;20086;-71
2022/09/17 08:01:47;;;;;;;11.50;1.73;;;;;;;13.73;100.00;100952.72;5062446;28;20521;-69
2022/09/17 08:04:13;;;;;;;6.47;1.23;;;;;;;13.73;100.00;100950.69;5061943;28;20143;-70
2022/09/17 08:06:40;;;;;;;12.88;1.98;;;;;;;13.84;100.00;100945.81;5059837;28;20048;-71
2022/09/17 08:09:08;;;;;;;9.13;1.20;;;;;;;13.83;100.00;100954.56;5064233;28;20083;-71
2022/09/17 08:11:35;;;;;;;3.38;0.90;;;;;;;13.80;100.00;100950.63;5055550;28;20067;-70
2022/09/17 08:14:22;;;;;;;11.73;1.50;;;;;;;13.91;100.00;100948.50;5060216;28;20420;-72
2022/09/17 08:16:54;;;;;;;8.10;1.42;;;;;;;14.05;100.00;100951.16;5067531;28;20056;-71
2022/09/17 08:19:21;;;;;;;7.72;1.65;;;;;;;14.06;100.00;100941.59;5067557;28;20060;-71
2022/09/17 08:21:47;;;;;;;4.63;1.15;;;;;;;14.15;100.00;100946.66;5068530;28;20468;-71
2022/09/17 08:24:14;;;;;;;2.05;0.52;;;;;;;14.13;100.00;100958.22;5067562;28;20051;-72
2022/09/17 08:26:40;;;;;;;6.82;1.02;;;;;;;14.16;100.00;100959.38;5058537;28;20060;-72
2022/09/17 08:29:07;;;;;;;10.70;1.38;;;;;;;14.13;100.00;100957.41;5059828;28;20059;-70
2022/09/17 08:31:33;;;;;;;6.78;1.20;;;;;;;14.23;100.00;100960.09;5058981;28;20056;-70
2022/09/17 08:34:00;;;;;;;17.25;1.02;;;;;;;14.32;100.00;100959.59;5057351;28;20049;-70
2022/09/17 08:36:27;;;;;;;7.90;1.65;;;;;;;14.45;100.00;100958.63;5051654;28;20602;-70
2022/09/17 08:38:54;;;;;;;9.00;1.55;;;;;;;14.57;100.00;100955.28;5068176;28;20056;-71
2022/09/17 08:41:36;;;;;;;7.55;1.80;;;;;;;14.57;100.00;100946.94;5062112;28;20124;-72
2022/09/17 08:44:03;;;;;;;12.35;2.17;;;;;;;14.71;100.00;100951.50;5067643;28;20052;-70
2022/09/17 08:46:46;;;;;;;3.97;1.13;;;;;;;14.84;100.00;100950.53;5067460;28;20055;-70
2022/09/17 08:49:22;;;;;;;8.15;1.00;;;;;;;14.98;100.00;100953.09;5056800;28;20059;-68
2022/09/17 08:52:25;;;;;;;7.30;1.48;;;;;;;15.11;100.00;100951.31;5059795;28;20056;-69
2022/09/17 08:55:30;;;;;;;7.38;1.30;;;;;;;15.16;100.00;100952.81;5055396;28;20818;-72
2022/09/17 08:58:34;;;;;;;13.38;2.03;;;;;;;15.35;100.00;100963.25;5031014;28;20063;-70
2022/09/17 09:01:18;;;;;;;14.60;1.65;;;;;;;15.44;100.00;100953.19;5055101;28;20060;-68
2022/09/17 09:03:45;;;;;;;10.70;1.88;;;;;;;15.49;100.00;100958.25;5068841;28;20048;-70
2022/09/17 09:06:14;;;;;;;12.90;1.80;;;;;;;15.50;100.00;100951.44;5068205;28;20059;-71
2022/09/17 09:08:47;;;;;;;10.05;1.48;;;;;;;15.65;100.00;100967.97;5068515;28;20153;-72
2022/09/17 09:11:21;;;;;;;5.80;1.77;;;;;;;15.56;100.00;100951.78;5067533;28;20052;-73
2022/09/17 09:13:54;;;;;;;11.73;1.17;;;;;;;15.60;98.62;100958.09;5068329;28;20049;-71
2022/09/17 09:16:26;;;;;;;1.23;0.52;;;;;;;15.62;95.42;100966.03;5068307;28;20049;-73
2022/09/17 09:19:05;;;;;;;8.90;1.88;;;;;;;15.88;96.80;100962.34;5068223;28;20045;-71
2022/09/17 09:21:53;;;;;;;6.00;1.20;;;;;;;16.05;94.27;100950.84;5066947;28;20050;-73
2022/09/17 09:24:25;;;;;;;5.25;0.95;;;;;;;16.00;91.96;100958.94;5068566;28;20098;-71
2022/09/17 09:27:12;;;;;;;6.22;1.10;;;;;;;16.23;92.61;100950.50;5067026;28;20493;-71
2022/09/17 09:29:55;;;;;;;5.20;0.45;;;;;;;16.18;86.94;100953.78;5066899;28;20098;-71
2022/09/17 09:32:21;;;;;;;8.95;1.30;;;;;;;16.42;90.23;100956.09;5063425;28;20048;-70
2022/09/17 09:34:49;;;;;;;16.75;1.48;;;;;;;16.48;90.05;100948.00;5066094;28;20040;-70
2022/09/17 09:37:24;;;;;;;4.80;1.08;;;;;;;16.62;89.74;100947.69;5062447;28;20056;-71
2022/09/17 09:39:53;;;;;;;12.75;1.08;;;;;;;16.66;86.57;100951.19;5067545;28;20052;-70
2022/09/17 09:42:29;;;;;;;4.00;1.23;;;;;;;16.86;87.31;100949.91;5062193;28;20059;-71
2022/09/17 09:44:57;;;;;;;;;;;;;;;16.93;80.54;100946.16;5068741;28;20401;-70
2022/09/17 09:47:55;;;;;;;12.23;1.15;;;;;;;16.83;81.97;100956.38;5067529;28;20380;-70
2022/09/17 09:50:21;;;;;;;7.18;0.98;;;;;;;16.89;79.03;100951.06;5067437;28;20444;-72
2022/09/17 09:53:03;;;;;;;4.53;0.60;;;;;;;16.95;78.90;100952.13;5067070;28;20541;-71
2022/09/17 09:56:14;;;;;;;11.38;0.70;;;;;;;16.76;74.60;100958.53;5067820;28;20061;-72
2022/09/17 09:58:42;;;;;;;3.72;0.73;;;;;;;17.01;77.02;100951.16;5058465;28;20049;-69
2022/09/17 10:01:19;;;;;;;4.60;1.00;;;;;;;17.14;79.33;100954.84;5043197;28;20049;-72
2022/09/17 10:03:47;;;;;;;7.32;1.35;;;;;;;16.87;76.36;100956.31;5033468;28;20158;-71
2022/09/17 10:06:15;;;;;;;4.25;0.70;;;;;;;16.99;80.19;100942.44;5047267;28;20052;-71
2022/09/17 10:08:54;;;;;;;7.25;0.77;;;;;;;17.39;77.09;100952.19;5052443;28;20110;-71
2022/09/17 10:11:23;;;;;;;3.55;1.20;;;;;;;17.60;76.11;100953.72;5047752;28;20049;-72
2022/09/17 10:13:50;;;;;;;2.85;0.38;;;;;;;17.72;74.21;100962.16;5048584;28;20061;-71
2022/09/17 10:16:25;;;;;;;5.80;1.00;;;;;;;17.84;72.19;100939.06;5045998;28;20908;-71
2022/09/17 10:19:13;;;;;;;4.18;0.82;;;;;;;17.65;67.45;100939.19;5046111;28;20063;-73
2022/09/17 10:21:41;;;;;;;6.75;1.00;;;;;;;17.84;71.78;100941.88;5042819;28;20056;-70
2022/09/17 10:24:27;;;;;;;6.55;0.80;;;;;;;17.74;69.58;100947.72;5048152;28;20064;-70
2022/09/17 10:27:03;;;;;;;4.22;0.93;;;;;;;17.92;67.90;100937.63;5044580;28;20057;-70
2022/09/17 10:29:30;;;;;;;5.20;0.60;;;;;;;17.88;70.05;100939.75;5042333;28;20052;-72
2022/09/17 10:31:57;;;;;;;5.13;0.70;;;;;;;17.82;69.53;100938.72;5040594;28;20045;-72
2022/09/17 10:34:26;;;;;;;8.73;1.80;;;;;;;17.67;73.12;100934.72;5046037;28;20226;-69
2022/09/17 10:36:55;;;;;;;7.28;0.90;;;;;;;17.52;82.46;100950.31;5046618;28;20125;-72
2022/09/17 10:39:33;;;;;;;4.43;0.60;;;;;;;17.15;86.79;100942.41;5045961;28;20060;-71
2022/09/17 10:42:05;;;;;;;5.28;1.05;;;;;;;16.67;92.31;100953.53;5043898;28;20072;-69
2022/09/17 10:44:34;;;;;;;3.70;0.95;;;;;;;16.44;93.37;100944.50;5048416;28;20509;-71
2022/09/17 10:47:05;;;;;;;1.55;0.77;;;;;;;16.28;93.66;100945.19;5047337;28;20126;-71
2022/09/17 10:49:39;;;;;;;1.95;0.60;;;;;;;16.42;93.26;100946.88;5044935;28;20045;-71
2022/09/17 10:52:44;;;;;;;3.55;0.82;;;;;;;16.66;96.13;100938.00;5052394;28;20052;-70
2022/09/17 10:55:16;;;;;;;1.25;0.50;;;;;;;16.90;90.18;100959.00;5050822;28;20101;-72
2022/09/17 10:58:06;;;;;;;1.92;0.57;;;;;;;17.36;89.79;100952.31;5041505;28;20056;-71
2022/09/17 11:00:47;;;;;;;2.50;0.50;;;;;;;17.35;83.44;100943.13;5047617;28;20170;-72
2022/09/17 11:03:40;;;;;;;3.33;0.95;;;;;;;17.67;89.84;100957.13;5061652;28;20109;-69
2022/09/17 11:06:14;;;;;;;5.13;0.75;;;;;;;17.63;88.67;100964.81;5042365;28;20052;-71
2022/09/17 11:08:46;;;;;;;0.43;0.40;;;;;;;17.37;84.45;100959.47;5045326;28;20472;-72
2022/09/17 11:11:45;;;;;;;2.05;0.60;;;;;;;17.49;83.10;100958.81;5042472;28;20055;-71
2022/09/17 11:14:41;;;;;;;2.13;0.60;;;;;;;16.86;83.67;100949.13;5042067;28;20045;-72
2022/09/17 11:17:19;;;;;;;3.17;0.70;;;;;;;16.57;83.80;100951.75;5020090;28;20067;-71
2022/09/17 11:20:05;;;;;;;3.92;0.68;;;;;;;16.20;86.64;100952.13;5041726;28;20637;-71
2022/09/17 11:22:31;;;;;;;0.88;0.35;;;;;;;15.98;86.02;100950.19;5046001;28;20050;-73
2022/09/17 11:25:16;;;;;;;4.63;0.80;;;;;;;16.38;89.96;100935.00;5042424;28;20065;-72
2022/09/17 11:28:04;;;;;;;4.55;0.82;;;;;;;16.78;84.62;100947.72;5039716;28;20056;-72
2022/09/17 11:30:52;;;;;;;5.10;1.02;;;;;;;17.10;80.42;100939.38;5044890;28;20045;-73
2022/09/17 11:34:00;;;;;;;3.83;0.57;;;;;;;17.31;77.82;100930.44;5042017;28;20044;-72
2022/09/17 11:36:54;;;;;;;0.63;0.20;;;;;;;17.52;77.34;100933.50;5006796;28;20052;-72